sensor_id;sensor_type;location;lat;lon;timestamp;pressure;altitude;pressure_sealevel;temperature;humidity
14253;BME280;7210;51.502;10.722;2023-01-26T00:01:44;100350.31;;;-1.09;100.00
14253;BME280;7210;51.502;10.722;2023-01-26T00:04:16;100357.13;;;-1.08;100.00
14253;BME280;7210;51.502;10.722;2023-01-26T00:06:52;100350.44;;;-1.11;100.00
14253;BME280;7210;51.502;10.722;2023-01-26T00:09:21;100347.16;;;-1.13;100.00
14253;BME280;7210;51.502;10.722;2023-01-26T00:11:52;100338.53;;;-1.13;100.00
14253;BME280;7210;51.502;10.722;2023-01-26T00:14:20;100339.94;;;-1.09;100.00
14253;BME280;7210;51.502;10.722;2023-01-26T00:16:47;100340.59;;;-1.07;100.00
14253;BME280;7210;51.502;10.722;2023-01-26T00:19:17;100341.84;;;-1.11;100.00
14253;BME280;7210;51.502;10.722;2023-01-26T00:21:44;100345.13;;;-1.09;100.00
14253;BME280;7210;51.502;10.722;2023-01-26T00:24:11;100334.06;;;-1.11;100.00
14253;BME280;7210;51.502;10.722;2023-01-26T00:26:39;100338.03;;;-1.07;100.00
14253;BME280;7210;51.502;10.722;2023-01-26T00:29:10;100329.03;;;-1.03;100.00
14253;BME280;7210;51.502;10.722;2023-01-26T00:31:46;100333.53;;;-0.96;100.00
14253;BME280;7210;51.502;10.722;2023-01-26T00:34:15;100328.47;;;-0.97;100.00
14253;BME280;7210;51.502;10.722;2023-01-26T00:36:46;100332.56;;;-0.95;100.00
14253;BME280;7210;51.502;10.722;2023-01-26T00:39:14;100332.44;;;-0.93;100.00
14253;BME280;7210;51.502;10.722;2023-01-26T00:41:43;100327.53;;;-0.96;100.00
14253;BME280;7210;51.502;10.722;2023-01-26T00:44:27;100323.81;;;-0.94;100.00
14253;BME280;7210;51.502;10.722;2023-01-26T00:46:54;100321.09;;;-0.92;100.00
14253;BME280;7210;51.502;10.722;2023-01-26T00:49:22;100323.44;;;-0.99;100.00
14253;BME280;7210;51.502;10.722;2023-01-26T00:51:49;100326.81;;;-0.98;100.00
14253;BME280;7210;51.502;10.722;2023-01-26T00:54:16;100325.19;;;-0.99;100.00
14253;BME280;7210;51.502;10.722;2023-01-26T00:56:47;100326.28;;;-1.02;100.00
14253;BME280;7210;51.502;10.722;2023-01-26T00:59:14;100319.19;;;-1.00;100.00
14253;BME280;7210;51.502;10.722;2023-01-26T01:01:53;100322.19;;;-1.04;100.00
14253;BME280;7210;51.502;10.722;2023-01-26T01:04:20;100313.31;;;-1.11;100.00
14253;BME280;7210;51.502;10.722;2023-01-26T01:06:47;100315.75;;;-1.10;100.00
14253;BME280;7210;51.502;10.722;2023-01-26T01:09:16;100326.84;;;-1.08;100.00
14253;BME280;7210;51.502;10.722;2023-01-26T01:11:44;100322.19;;;-1.14;100.00
14253;BME280;7210;51.502;10.722;2023-01-26T01:14:15;100321.63;;;-1.17;100.00
14253;BME280;7210;51.502;10.722;2023-01-26T01:16:43;100310.72;;;-1.21;100.00
14253;BME280;7210;51.502;10.722;2023-01-26T01:19:13;100304.97;;;-1.24;100.00
14253;BME280;7210;51.502;10.722;2023-01-26T01:21:41;100309.31;;;-1.25;100.00
14253;BME280;7210;51.502;10.722;2023-01-26T01:24:10;100312.63;;;-1.23;100.00
14253;BME280;7210;51.502;10.722;2023-01-26T01:26:38;100313.72;;;-1.16;100.00
14253;BME280;7210;51.502;10.722;2023-01-26T01:29:06;100308.25;;;-1.13;100.00
14253;BME280;7210;51.502;10.722;2023-01-26T01:31:34;100309.59;;;-1.09;100.00
14253;BME280;7210;51.502;10.722;2023-01-26T01:34:02;100304.59;;;-1.10;100.00
14253;BME280;7210;51.502;10.722;2023-01-26T01:36:29;100305.94;;;-1.06;100.00
14253;BME280;7210;51.502;10.722;2023-01-26T01:38:56;100309.91;;;-1.02;100.00
14253;BME280;7210;51.502;10.722;2023-01-26T01:41:46;100307.03;;;-0.99;100.00
14253;BME280;7210;51.502;10.722;2023-01-26T01:44:20;100301.72;;;-0.98;100.00
14253;BME280;7210;51.502;10.722;2023-01-26T01:46:55;100306.34;;;-1.01;100.00
14253;BME280;7210;51.502;10.722;2023-01-26T01:49:28;100299.38;;;-1.01;100.00
14253;BME280;7210;51.502;10.722;2023-01-26T01:52:04;100289.97;;;-1.02;100.00
14253;BME280;7210;51.502;10.722;2023-01-26T01:54:39;100289.00;;;-1.01;100.00
14253;BME280;7210;51.502;10.722;2023-01-26T01:57:12;100282.59;;;-1.06;100.00
14253;BME280;7210;51.502;10.722;2023-01-26T01:59:50;100280.41;;;-1.01;100.00
14253;BME280;7210;51.502;10.722;2023-01-26T02:02:24;100291.22;;;-0.96;100.00
14253;BME280;7210;51.502;10.722;2023-01-26T02:04:57;100282.72;;;-0.98;100.00
14253;BME280;7210;51.502;10.722;2023-01-26T02:07:27;100285.31;;;-0.98;100.00
14253;BME280;7210;51.502;10.722;2023-01-26T02:09:56;100273.59;;;-0.93;100.00
14253;BME280;7210;51.502;10.722;2023-01-26T02:12:55;100282.84;;;-0.90;100.00
14253;BME280;7210;51.502;10.722;2023-01-26T02:15:25;100269.75;;;-0.89;100.00
14253;BME280;7210;51.502;10.722;2023-01-26T02:17:54;100263.47;;;-0.86;100.00
14253;BME280;7210;51.502;10.722;2023-01-26T02:20:33;100258.41;;;-0.88;100.00
14253;BME280;7210;51.502;10.722;2023-01-26T02:23:16;100252.13;;;-0.95;100.00
14253;BME280;7210;51.502;10.722;2023-01-26T02:26:05;100243.56;;;-0.95;100.00
14253;BME280;7210;51.502;10.722;2023-01-26T02:28:43;100249.00;;;-0.89;100.00
14253;BME280;7210;51.502;10.722;2023-01-26T02:31:12;100235.91;;;-0.87;100.00
14253;BME280;7210;51.502;10.722;2023-01-26T02:33:52;100236.69;;;-0.87;100.00
14253;BME280;7210;51.502;10.722;2023-01-26T02:36:23;100234.53;;;-0.82;100.00
14253;BME280;7210;51.502;10.722;2023-01-26T02:39:03;100224.94;;;-0.81;100.00
14253;BME280;7210;51.502;10.722;2023-01-26T02:41:37;100219.50;;;-0.78;100.00
14253;BME280;7210;51.502;10.722;2023-01-26T02:44:29;100211.16;;;-0.82;100.00
14253;BME280;7210;51.502;10.722;2023-01-26T02:46:57;100199.28;;;-0.84;100.00
14253;BME280;7210;51.502;10.722;2023-01-26T02:49:24;100189.44;;;-0.90;100.00
14253;BME280;7210;51.502;10.722;2023-01-26T02:52:10;100184.25;;;-0.90;100.00
14253;BME280;7210;51.502;10.722;2023-01-26T02:54:46;100175.53;;;-0.89;100.00
14253;BME280;7210;51.502;10.722;2023-01-26T02:57:42;100158.91;;;-0.96;100.00
14253;BME280;7210;51.502;10.722;2023-01-26T03:00:18;100143.88;;;-1.02;100.00
14253;BME280;7210;51.502;10.722;2023-01-26T03:02:50;100140.84;;;-0.88;100.00
14253;BME280;7210;51.502;10.722;2023-01-26T03:08:39;100131.69;;;-0.83;100.00
14253;BME280;7210;51.502;10.722;2023-01-26T03:11:08;100126.06;;;-0.78;100.00
14253;BME280;7210;51.502;10.722;2023-01-26T03:13:36;100127.41;;;-0.74;100.00
14253;BME280;7210;51.502;10.722;2023-01-26T03:19:29;100118.53;;;-0.81;100.00
14253;BME280;7210;51.502;10.722;2023-01-26T03:22:14;100107.91;;;-0.78;100.00
14253;BME280;7210;51.502;10.722;2023-01-26T03:24:58;100090.88;;;-0.90;100.00
14253;BME280;7210;51.502;10.722;2023-01-26T03:27:46;100100.38;;;-0.81;100.00
14253;BME280;7210;51.502;10.722;2023-01-26T03:30:19;100078.72;;;-0.90;100.00
14253;BME280;7210;51.502;10.722;2023-01-26T03:32:48;100081.84;;;-0.86;100.00
14253;BME280;7210;51.502;10.722;2023-01-26T03:35:16;100074.31;;;-0.89;100.00
14253;BME280;7210;51.502;10.722;2023-01-26T03:37:48;100066.59;;;-0.99;100.00
14253;BME280;7210;51.502;10.722;2023-01-26T03:40:29;100064.44;;;-1.03;100.00
14253;BME280;7210;51.502;10.722;2023-01-26T03:43:13;100069.03;;;-0.97;100.00
14253;BME280;7210;51.502;10.722;2023-01-26T03:46:03;100065.22;;;-0.93;100.00
14253;BME280;7210;51.502;10.722;2023-01-26T03:48:49;100060.16;;;-0.95;100.00
14253;BME280;7210;51.502;10.722;2023-01-26T03:51:34;100052.38;;;-0.95;100.00
14253;BME280;7210;51.502;10.722;2023-01-26T03:54:18;100050.88;;;-0.97;100.00
14253;BME280;7210;51.502;10.722;2023-01-26T03:57:04;100042.06;;;-1.04;100.00
14253;BME280;7210;51.502;10.722;2023-01-26T03:59:35;100039.06;;;-1.09;100.00
14253;BME280;7210;51.502;10.722;2023-01-26T04:02:11;100035.91;;;-1.03;100.00
14253;BME280;7210;51.502;10.722;2023-01-26T04:04:57;100029.59;;;-1.01;100.00
14253;BME280;7210;51.502;10.722;2023-01-26T04:07:45;100029.59;;;-1.01;100.00
14253;BME280;7210;51.502;10.722;2023-01-26T04:10:30;100023.91;;;-1.04;100.00
14253;BME280;7210;51.502;10.722;2023-01-26T04:13:05;100019.09;;;-1.09;100.00
14253;BME280;7210;51.502;10.722;2023-01-26T04:15:56;100014.75;;;-1.08;100.00
14253;BME280;7210;51.502;10.722;2023-01-26T04:18:49;99988.41;;;-1.13;100.00
14253;BME280;7210;51.502;10.722;2023-01-26T04:21:34;100002.34;;;-1.14;100.00
14253;BME280;7210;51.502;10.722;2023-01-26T04:24:23;100003.59;;;-1.18;100.00
14253;BME280;7210;51.502;10.722;2023-01-26T04:26:54;99993.81;;;-1.24;100.00
14253;BME280;7210;51.502;10.722;2023-01-26T04:29:25;99998.97;;;-1.24;100.00
14253;BME280;7210;51.502;10.722;2023-01-26T04:31:52;99992.16;;;-1.25;100.00
14253;BME280;7210;51.502;10.722;2023-01-26T04:34:22;99988.91;;;-1.27;100.00
14253;BME280;7210;51.502;10.722;2023-01-26T04:36:50;99991.09;;;-1.32;100.00
14253;BME280;7210;51.502;10.722;2023-01-26T04:39:19;99994.38;;;-1.30;100.00
14253;BME280;7210;51.502;10.722;2023-01-26T04:41:50;99982.66;;;-1.34;100.00
14253;BME280;7210;51.502;10.722;2023-01-26T04:44:19;99984.28;;;-1.33;100.00
14253;BME280;7210;51.502;10.722;2023-01-26T04:46:47;99991.91;;;-1.32;100.00
14253;BME280;7210;51.502;10.722;2023-01-26T04:49:16;99998.22;;;-1.34;100.00
14253;BME280;7210;51.502;10.722;2023-01-26T04:51:49;100009.91;;;-1.30;100.00
14253;BME280;7210;51.502;10.722;2023-01-26T04:54:16;100015.09;;;-1.30;100.00
14253;BME280;7210;51.502;10.722;2023-01-26T04:56:44;100017.44;;;-1.27;100.00
14253;BME280;7210;51.502;10.722;2023-01-26T04:59:12;100024.63;;;-1.21;100.00
14253;BME280;7210;51.502;10.722;2023-01-26T05:01:41;100025.22;;;-1.27;100.00
14253;BME280;7210;51.502;10.722;2023-01-26T05:04:10;100026.13;;;-1.28;100.00
14253;BME280;7210;51.502;10.722;2023-01-26T05:06:41;100026.97;;;-1.28;100.00
14253;BME280;7210;51.502;10.722;2023-01-26T05:09:11;100035.84;;;-1.30;100.00
14253;BME280;7210;51.502;10.722;2023-01-26T05:11:41;100040.47;;;-1.24;100.00
14253;BME280;7210;51.502;10.722;2023-01-26T05:14:46;100040.78;;;-1.27;100.00
14253;BME280;7210;51.502;10.722;2023-01-26T05:17:40;100033.97;;;-1.38;100.00
14253;BME280;7210;51.502;10.722;2023-01-26T05:20:30;100028.50;;;-1.44;100.00
14253;BME280;7210;51.502;10.722;2023-01-26T05:23:05;100032.63;;;-1.51;100.00
14253;BME280;7210;51.502;10.722;2023-01-26T05:26:00;100027.59;;;-1.53;100.00
14253;BME280;7210;51.502;10.722;2023-01-26T05:28:29;100018.19;;;-1.63;100.00
14253;BME280;7210;51.502;10.722;2023-01-26T05:30:56;100016.56;;;-1.64;100.00
14253;BME280;7210;51.502;10.722;2023-01-26T05:33:23;100027.19;;;-1.67;100.00
14253;BME280;7210;51.502;10.722;2023-01-26T05:35:53;100025.84;;;-1.71;100.00
14253;BME280;7210;51.502;10.722;2023-01-26T05:38:20;100036.88;;;-1.69;100.00
14253;BME280;7210;51.502;10.722;2023-01-26T05:41:01;100039.47;;;-1.69;100.00
14253;BME280;7210;51.502;10.722;2023-01-26T05:43:34;100034.97;;;-1.67;100.00
14253;BME280;7210;51.502;10.722;2023-01-26T05:46:09;100048.19;;;-1.61;100.00
14253;BME280;7210;51.502;10.722;2023-01-26T05:48:41;100056.09;;;-1.62;100.00
14253;BME280;7210;51.502;10.722;2023-01-26T05:51:08;100052.84;;;-1.64;100.00
14253;BME280;7210;51.502;10.722;2023-01-26T05:53:37;100055.16;;;-1.61;100.00
14253;BME280;7210;51.502;10.722;2023-01-26T05:56:06;100056.50;;;-1.57;100.00
14253;BME280;7210;51.502;10.722;2023-01-26T05:58:36;100063.88;;;-1.53;100.00
14253;BME280;7210;51.502;10.722;2023-01-26T06:01:04;100065.63;;;-1.53;100.00
14253;BME280;7210;51.502;10.722;2023-01-26T06:03:40;100072.44;;;-1.52;100.00
14253;BME280;7210;51.502;10.722;2023-01-26T06:06:08;100072.75;;;-1.55;100.00
14253;BME280;7210;51.502;10.722;2023-01-26T06:08:45;100067.00;;;-1.68;100.00
14253;BME280;7210;51.502;10.722;2023-01-26T06:11:37;100068.94;;;-1.70;100.00
14253;BME280;7210;51.502;10.722;2023-01-26T06:14:16;100070.19;;;-1.74;100.00
14253;BME280;7210;51.502;10.722;2023-01-26T06:16:44;100063.19;;;-1.83;100.00
14253;BME280;7210;51.502;10.722;2023-01-26T06:19:13;100062.41;;;-1.84;100.00
14253;BME280;7210;51.502;10.722;2023-01-26T06:21:43;100074.66;;;-1.76;100.00
14253;BME280;7210;51.502;10.722;2023-01-26T06:24:12;100069.22;;;-1.83;100.00
14253;BME280;7210;51.502;10.722;2023-01-26T06:26:42;100068.66;;;-1.86;100.00
14253;BME280;7210;51.502;10.722;2023-01-26T06:29:12;100069.50;;;-1.86;100.00
14253;BME280;7210;51.502;10.722;2023-01-26T06:31:47;100071.13;;;-1.85;100.00
14253;BME280;7210;51.502;10.722;2023-01-26T06:34:17;100068.66;;;-1.86;100.00
14253;BME280;7210;51.502;10.722;2023-01-26T06:36:46;100071.13;;;-1.85;100.00
14253;BME280;7210;51.502;10.722;2023-01-26T06:39:22;100078.75;;;-1.83;100.00
14253;BME280;7210;51.502;10.722;2023-01-26T06:41:51;100075.59;;;-1.87;100.00
14253;BME280;7210;51.502;10.722;2023-01-26T06:44:18;100067.03;;;-1.87;100.00
14253;BME280;7210;51.502;10.722;2023-01-26T06:46:45;100073.84;;;-1.86;100.00
14253;BME280;7210;51.502;10.722;2023-01-26T06:49:23;100077.94;;;-1.84;100.00
14253;BME280;7210;51.502;10.722;2023-01-26T06:52:03;100080.13;;;-1.79;100.00
14253;BME280;7210;51.502;10.722;2023-01-26T06:54:59;100074.81;;;-1.87;100.00
14253;BME280;7210;51.502;10.722;2023-01-26T06:57:46;100075.47;;;-1.85;100.00
14253;BME280;7210;51.502;10.722;2023-01-26T07:00:36;100073.72;;;-1.94;100.00
14253;BME280;7210;51.502;10.722;2023-01-26T07:03:13;100073.56;;;-2.02;100.00
14253;BME280;7210;51.502;10.722;2023-01-26T07:05:41;100068.91;;;-2.08;100.00
14253;BME280;7210;51.502;10.722;2023-01-26T07:08:09;100062.94;;;-2.18;100.00
14253;BME280;7210;51.502;10.722;2023-01-26T07:10:37;100075.06;;;-2.09;100.00
14253;BME280;7210;51.502;10.722;2023-01-26T07:13:07;100074.50;;;-2.13;100.00
14253;BME280;7210;51.502;10.722;2023-01-26T07:15:35;100087.47;;;-2.03;100.00
14253;BME280;7210;51.502;10.722;2023-01-26T07:18:13;100092.25;;;-1.99;100.00
14253;BME280;7210;51.502;10.722;2023-01-26T07:20:53;100089.66;;;-1.99;100.00
14253;BME280;7210;51.502;10.722;2023-01-26T07:23:29;100088.28;;;-2.03;100.00
14253;BME280;7210;51.502;10.722;2023-01-26T07:25:57;100095.91;;;-2.01;100.00
14253;BME280;7210;51.502;10.722;2023-01-26T07:28:36;100104.38;;;-1.99;100.00
14253;BME280;7210;51.502;10.722;2023-01-26T07:31:05;100092.66;;;-2.03;100.00
14253;BME280;7210;51.502;10.722;2023-01-26T07:33:34;100093.63;;;-2.04;100.00
14253;BME280;7210;51.502;10.722;2023-01-26T07:36:02;100091.56;;;-2.01;100.00
14253;BME280;7210;51.502;10.722;2023-01-26T07:38:30;100099.72;;;-1.96;100.00
14253;BME280;7210;51.502;10.722;2023-01-26T07:40:58;100098.63;;;-2.03;100.00
14253;BME280;7210;51.502;10.722;2023-01-26T07:43:25;100101.09;;;-2.01;100.00
14253;BME280;7210;51.502;10.722;2023-01-26T07:45:54;100105.19;;;-1.99;100.00
14253;BME280;7210;51.502;10.722;2023-01-26T07:48:23;100097.44;;;-1.99;100.00
14253;BME280;7210;51.502;10.722;2023-01-26T07:50:56;100107.66;;;-1.97;100.00
14253;BME280;7210;51.502;10.722;2023-01-26T07:53:30;100115.81;;;-1.92;100.00
14253;BME280;7210;51.502;10.722;2023-01-26T07:56:08;100112.56;;;-1.94;100.00
14253;BME280;7210;51.502;10.722;2023-01-26T07:58:36;100117.47;;;-1.91;100.00
14253;BME280;7210;51.502;10.722;2023-01-26T08:01:10;100118.84;;;-1.87;100.00
14253;BME280;7210;51.502;10.722;2023-01-26T08:03:38;100117.22;;;-1.88;100.00
14253;BME280;7210;51.502;10.722;2023-01-26T08:06:07;100113.91;;;-1.90;100.00
14253;BME280;7210;51.502;10.722;2023-01-26T08:08:35;100129.19;;;-1.87;100.00
14253;BME280;7210;51.502;10.722;2023-01-26T08:11:02;100139.56;;;-1.87;100.00
14253;BME280;7210;51.502;10.722;2023-01-26T08:13:30;100129.19;;;-1.87;100.00
14253;BME280;7210;51.502;10.722;2023-01-26T08:16:02;100120.31;;;-1.94;100.00
14253;BME280;7210;51.502;10.722;2023-01-26T08:18:31;100127.81;;;-1.91;100.00
14253;BME280;7210;51.502;10.722;2023-01-26T08:20:59;100135.47;;;-1.80;100.00
14253;BME280;7210;51.502;10.722;2023-01-26T08:23:29;100152.94;;;-1.73;100.00
14253;BME280;7210;51.502;10.722;2023-01-26T08:26:00;100140.66;;;-1.80;100.00
14253;BME280;7210;51.502;10.722;2023-01-26T08:28:28;100144.34;;;-1.73;100.00
14253;BME280;7210;51.502;10.722;2023-01-26T08:30:55;100134.53;;;-1.79;100.00
14253;BME280;7210;51.502;10.722;2023-01-26T08:33:23;100134.53;;;-1.79;100.00
14253;BME280;7210;51.502;10.722;2023-01-26T08:35:51;100143.78;;;-1.67;100.00
14253;BME280;7210;51.502;10.722;2023-01-26T08:38:23;100148.44;;;-1.61;100.00
14253;BME280;7210;51.502;10.722;2023-01-26T08:40:51;100145.44;;;-1.66;100.00
14253;BME280;7210;51.502;10.722;2023-01-26T08:43:23;100147.75;;;-1.63;100.00
14253;BME280;7210;51.502;10.722;2023-01-26T08:45:51;100142.84;;;-1.66;100.00
14253;BME280;7210;51.502;10.722;2023-01-26T08:48:47;100137.66;;;-1.57;100.00
14253;BME280;7210;51.502;10.722;2023-01-26T08:51:15;100136.56;;;-1.54;100.00
14253;BME280;7210;51.502;10.722;2023-01-26T08:53:42;100135.78;;;-1.55;100.00
14253;BME280;7210;51.502;10.722;2023-01-26T08:56:12;100130.59;;;-1.55;100.00
14253;BME280;7210;51.502;10.722;2023-01-26T08:58:39;100128.78;;;-1.54;100.00
14253;BME280;7210;51.502;10.722;2023-01-26T09:01:13;100130.28;;;-1.61;100.00
14253;BME280;7210;51.502;10.722;2023-01-26T09:03:41;100122.94;;;-1.66;100.00
14253;BME280;7210;51.502;10.722;2023-01-26T09:06:12;100123.19;;;-1.59;100.00
14253;BME280;7210;51.502;10.722;2023-01-26T09:08:42;100118.97;;;-1.60;100.00
14253;BME280;7210;51.502;10.722;2023-01-26T09:11:12;100126.19;;;-1.54;100.00
14253;BME280;7210;51.502;10.722;2023-01-26T09:13:39;100119.38;;;-1.55;100.00
14253;BME280;7210;51.502;10.722;2023-01-26T09:16:15;100118.84;;;-1.49;100.00
14253;BME280;7210;51.502;10.722;2023-01-26T09:18:48;100114.72;;;-1.33;100.00
14253;BME280;7210;51.502;10.722;2023-01-26T09:21:15;100113.75;;;-1.22;100.00
14253;BME280;7210;51.502;10.722;2023-01-26T09:23:43;100118.50;;;-1.08;100.00
14253;BME280;7210;51.502;10.722;2023-01-26T09:26:11;100120.00;;;-0.96;100.00
14253;BME280;7210;51.502;10.722;2023-01-26T09:28:41;100109.72;;;-0.88;100.00
14253;BME280;7210;51.502;10.722;2023-01-26T09:31:10;100100.69;;;-0.84;100.00
14253;BME280;7210;51.502;10.722;2023-01-26T09:33:41;100096.03;;;-0.81;100.00
14253;BME280;7210;51.502;10.722;2023-01-26T09:36:10;100071.84;;;-0.81;100.00
14253;BME280;7210;51.502;10.722;2023-01-26T09:38:42;100095.97;;;-0.62;100.00
14253;BME280;7210;51.502;10.722;2023-01-26T09:41:31;100085.59;;;-0.62;100.00
14253;BME280;7210;51.502;10.722;2023-01-26T09:44:08;100073.31;;;-0.69;100.00
14253;BME280;7210;51.502;10.722;2023-01-26T09:46:49;100065.44;;;-0.87;100.00
14253;BME280;7210;51.502;10.722;2023-01-26T09:49:26;100063.59;;;-0.94;100.00
14253;BME280;7210;51.502;10.722;2023-01-26T09:52:04;100064.25;;;-0.92;100.00
14253;BME280;7210;51.502;10.722;2023-01-26T09:54:38;100061.09;;;-0.86;100.00
14253;BME280;7210;51.502;10.722;2023-01-26T09:57:12;100061.75;;;-0.84;100.00
14253;BME280;7210;51.502;10.722;2023-01-26T09:59:46;100045.00;;;-0.90;100.00
14253;BME280;7210;51.502;10.722;2023-01-26T10:02:32;100051.56;;;-0.95;100.00
14253;BME280;7210;51.502;10.722;2023-01-26T10:05:13;100059.06;;;-0.92;100.00
14253;BME280;7210;51.502;10.722;2023-01-26T10:07:43;100046.13;;;-1.02;100.00
14253;BME280;7210;51.502;10.722;2023-01-26T10:10:22;100044.78;;;-1.06;100.00
14253;BME280;7210;51.502;10.722;2023-01-26T10:12:53;100037.44;;;-1.10;100.00
14253;BME280;7210;51.502;10.722;2023-01-26T10:15:29;100042.22;;;-1.15;100.00
14253;BME280;7210;51.502;10.722;2023-01-26T10:18:03;100044.25;;;-1.09;100.00
14253;BME280;7210;51.502;10.722;2023-01-26T10:20:35;100038.94;;;-1.17;100.00
14253;BME280;7210;51.502;10.722;2023-01-26T10:23:12;100029.97;;;-1.23;100.00
14253;BME280;7210;51.502;10.722;2023-01-26T10:25:44;100024.41;;;-1.37;100.00
14253;BME280;7210;51.502;10.722;2023-01-26T10:28:15;100035.31;;;-1.34;100.00
14253;BME280;7210;51.502;10.722;2023-01-26T10:30:48;100037.47;;;-1.29;100.00
14253;BME280;7210;51.502;10.722;2023-01-26T10:33:31;100033.81;;;-1.36;100.00
14253;BME280;7210;51.502;10.722;2023-01-26T10:35:59;100044.94;;;-1.17;100.00
14253;BME280;7210;51.502;10.722;2023-01-26T10:38:38;100028.03;;;-1.21;100.00
14253;BME280;7210;51.502;10.722;2023-01-26T10:41:25;100031.72;;;-1.23;100.00
14253;BME280;7210;51.502;10.722;2023-01-26T10:43:55;100036.06;;;-1.14;100.00
14253;BME280;7210;51.502;10.722;2023-01-26T10:46:30;100050.22;;;-0.99;100.00
14253;BME280;7210;51.502;10.722;2023-01-26T10:49:01;100039.31;;;-1.03;100.00
14253;BME280;7210;51.502;10.722;2023-01-26T10:51:31;100041.19;;;-0.95;100.00
14253;BME280;7210;51.502;10.722;2023-01-26T10:54:30;100033.56;;;-0.97;100.00
14253;BME280;7210;51.502;10.722;2023-01-26T10:57:03;100030.81;;;-0.95;100.00
14253;BME280;7210;51.502;10.722;2023-01-26T10:59:36;100030.22;;;-0.89;100.00
14253;BME280;7210;51.502;10.722;2023-01-26T11:02:22;100021.88;;;-0.83;100.00
14253;BME280;7210;51.502;10.722;2023-01-26T11:05:20;100029.84;;;-0.67;100.00
14253;BME280;7210;51.502;10.722;2023-01-26T11:07:50;100023.78;;;-0.58;100.00
14253;BME280;7210;51.502;10.722;2023-01-26T11:10:26;100010.81;;;-0.58;100.00
14253;BME280;7210;51.502;10.722;2023-01-26T11:13:13;100000.63;;;-0.69;100.00
14253;BME280;7210;51.502;10.722;2023-01-26T11:15:44;99998.69;;;-0.67;100.00
14253;BME280;7210;51.502;10.722;2023-01-26T11:18:40;100005.78;;;-0.60;100.00
14253;BME280;7210;51.502;10.722;2023-01-26T11:21:14;99999.19;;;-0.54;100.00
14253;BME280;7210;51.502;10.722;2023-01-26T11:23:59;99988.50;;;-0.51;100.00
14253;BME280;7210;51.502;10.722;2023-01-26T11:26:56;99979.47;;;-0.47;100.00
14253;BME280;7210;51.502;10.722;2023-01-26T11:29:51;99985.13;;;-0.34;100.00
14253;BME280;7210;51.502;10.722;2023-01-26T11:32:29;99990.22;;;-0.25;100.00
14253;BME280;7210;51.502;10.722;2023-01-26T11:35:15;99974.81;;;-0.26;100.00
14253;BME280;7210;51.502;10.722;2023-01-26T11:37:57;99966.38;;;-0.20;100.00
14253;BME280;7210;51.502;10.722;2023-01-26T11:40:35;99964.19;;;-0.15;100.00
14253;BME280;7210;51.502;10.722;2023-01-26T11:43:25;99941.69;;;-0.24;100.00
14253;BME280;7210;51.502;10.722;2023-01-26T11:46:22;99931.75;;;-0.29;100.00
14253;BME280;7210;51.502;10.722;2023-01-26T11:49:14;99936.66;;;-0.26;100.00
14253;BME280;7210;51.502;10.722;2023-01-26T11:52:00;99921.88;;;-0.25;100.00
14253;BME280;7210;51.502;10.722;2023-01-26T11:55:03;99918.47;;;-0.26;100.00
14253;BME280;7210;51.502;10.722;2023-01-26T11:57:46;99906.59;;;-0.28;100.00
14253;BME280;7210;51.502;10.722;2023-01-26T12:00:21;99893.03;;;-0.40;100.00
14253;BME280;7210;51.502;10.722;2023-01-26T12:03:00;99895.47;;;-0.38;100.00
14253;BME280;7210;51.502;10.722;2023-01-26T12:05:39;99899.09;;;-0.31;100.00
14253;BME280;7210;51.502;10.722;2023-01-26T12:08:14;99908.28;;;-0.19;100.00
14253;BME280;7210;51.502;10.722;2023-01-26T12:10:57;99912.59;;;-0.10;100.00
14253;BME280;7210;51.502;10.722;2023-01-26T12:16:58;99878.72;;;-0.26;100.00
14253;BME280;7210;51.502;10.722;2023-01-26T12:19:42;99886.84;;;-0.21;100.00
14253;BME280;7210;51.502;10.722;2023-01-26T12:22:21;99881.66;;;-0.21;100.00
14253;BME280;7210;51.502;10.722;2023-01-26T12:25:00;99874.38;;;-0.18;100.00
14253;BME280;7210;51.502;10.722;2023-01-26T12:27:42;99862.88;;;-0.15;100.00
14253;BME280;7210;51.502;10.722;2023-01-26T12:30:30;99860.97;;;-0.06;100.00
14253;BME280;7210;51.502;10.722;2023-01-26T12:33:00;99860.38;;;0.00;100.00
14253;BME280;7210;51.502;10.722;2023-01-26T12:39:05;99846.72;;;-0.02;100.00
14253;BME280;7210;51.502;10.722;2023-01-26T12:42:00;99842.84;;;0.02;100.00
14253;BME280;7210;51.502;10.722;2023-01-26T12:44:37;99848.75;;;0.12;100.00
14253;BME280;7210;51.502;10.722;2023-01-26T12:47:17;99854.66;;;0.22;100.00
14253;BME280;7210;51.502;10.722;2023-01-26T12:49:53;99845.06;;;0.23;100.00
14253;BME280;7210;51.502;10.722;2023-01-26T12:52:31;99832.84;;;0.15;100.00
14253;BME280;7210;51.502;10.722;2023-01-26T12:55:08;99833.97;;;0.13;100.00
14253;BME280;7210;51.502;10.722;2023-01-26T12:57:44;99830.53;;;0.04;100.00
14253;BME280;7210;51.502;10.722;2023-01-26T13:00:21;99827.88;;;-0.03;100.00
14253;BME280;7210;51.502;10.722;2023-01-26T13:02:59;99854.19;;;0.01;100.00
14253;BME280;7210;51.502;10.722;2023-01-26T13:05:31;99856.66;;;0.03;100.00
14253;BME280;7210;51.502;10.722;2023-01-26T13:08:50;99857.91;;;-0.01;100.00
14253;BME280;7210;51.502;10.722;2023-01-26T13:11:47;99874.34;;;-0.01;100.00
14253;BME280;7210;51.502;10.722;2023-01-26T13:14:33;99881.53;;;0.05;100.00
14253;BME280;7210;51.502;10.722;2023-01-26T13:17:54;99887.97;;;0.01;100.00
14253;BME280;7210;51.502;10.722;2023-01-26T13:20:49;99895.78;;;0.01;100.00
14253;BME280;7210;51.502;10.722;2023-01-26T13:23:51;99894.66;;;0.04;100.00
14253;BME280;7210;51.502;10.722;2023-01-26T13:26:24;99907.84;;;0.10;100.00
14253;BME280;7210;51.502;10.722;2023-01-26T13:29:51;99903.63;;;0.09;100.00
14253;BME280;7210;51.502;10.722;2023-01-26T13:32:53;99901.34;;;0.06;100.00
14253;BME280;7210;51.502;10.722;2023-01-26T13:35:23;99913.88;;;0.11;100.00
14253;BME280;7210;51.502;10.722;2023-01-26T13:38:01;99908.31;;;0.06;100.00
14253;BME280;7210;51.502;10.722;2023-01-26T13:40:41;99930.44;;;0.10;100.00